Time;durP1;ratioP1;P1;durP2;ratioP2;P2;SDS_P1;SDS_P2;PMS_P1;PMS_P2;Temp;Humidity;BMP_temperature;BMP_pressure;BME280_temperature;BME280_humidity;BME280_pressure;Samples;Min_cycle;Max_cycle;Signal;HPM_P1;HPM_P2
2022/04/12 00:00:40;;;;;;;17.57;10.57;;;7.40;99.90;;;;;;4935450;29;20123;-87
2022/04/12 00:03:06;;;;;;;18.60;10.37;;;7.40;99.90;;;;;;4918987;29;20047;-87
2022/04/12 00:05:33;;;;;;;20.33;11.00;;;7.40;99.90;;;;;;4918806;29;20395;-86
2022/04/12 00:07:59;;;;;;;18.63;10.53;;;7.40;99.90;;;;;;4918256;29;20547;-87
2022/04/12 00:10:25;;;;;;;19.60;10.10;;;7.40;99.90;;;;;;4919256;29;20047;-87
2022/04/12 00:12:50;;;;;;;17.37;10.30;;;7.30;99.90;;;;;;4935957;29;20044;-87
2022/04/12 00:15:16;;;;;;;19.70;10.83;;;7.30;99.90;;;;;;4935515;29;20479;-87
2022/04/12 00:20:29;;;;;;;17.35;10.05;;;7.20;99.90;;;;;;4919009;29;20055;-86
2022/04/12 00:22:56;;;;;;;19.37;10.47;;;7.20;99.90;;;;;;4935281;29;20128;-86
2022/04/12 00:25:22;;;;;;;19.13;10.80;;;7.20;99.90;;;;;;4918899;29;20739;-86
2022/04/12 00:27:50;;;;;;;19.03;10.57;;;7.20;99.90;;;;;;4917665;29;20048;-86
2022/04/12 00:30:16;;;;;;;18.40;10.30;;;7.10;99.90;;;;;;4918984;29;20048;-87
2022/04/12 00:32:42;;;;;;;19.13;11.07;;;7.10;99.90;;;;;;4935937;29;20059;-86
2022/04/12 00:35:08;;;;;;;17.23;9.63;;;7.10;99.90;;;;;;4918088;29;20043;-87
2022/04/12 00:37:34;;;;;;;17.83;10.37;;;7.10;99.90;;;;;;4918403;29;20052;-86
2022/04/12 00:40:00;;;;;;;18.53;10.70;;;7.10;99.90;;;;;;4918371;29;20399;-87
2022/04/12 00:42:26;;;;;;;18.27;10.40;;;7.10;99.90;;;;;;4917941;29;20141;-86
2022/04/12 00:44:52;;;;;;;19.70;10.97;;;7.10;99.90;;;;;;4935562;29;20047;-86
2022/04/12 00:47:17;;;;;;;19.03;10.90;;;7.00;99.90;;;;;;4935423;29;20044;-87
2022/04/12 00:49:43;;;;;;;18.63;10.83;;;7.00;99.90;;;;;;4920661;29;20040;-86
2022/04/12 00:52:10;;;;;;;17.83;10.00;;;6.90;99.90;;;;;;4940042;29;20048;-86
2022/04/12 00:54:37;;;;;;;17.97;10.43;;;6.90;99.90;;;;;;4935638;29;20044;-87
2022/04/12 00:57:04;;;;;;;17.50;10.50;;;6.80;99.90;;;;;;4917193;29;20052;-87
2022/04/12 00:59:35;;;;;;;17.57;10.03;;;6.80;99.90;;;;;;4918373;29;20559;-86
2022/04/12 01:02:05;;;;;;;18.47;10.80;;;6.80;99.90;;;;;;4935236;29;20139;-87
2022/04/12 01:04:31;;;;;;;19.50;10.37;;;6.70;99.90;;;;;;4934759;29;20126;-87
2022/04/12 01:06:57;;;;;;;19.10;10.60;;;6.70;99.90;;;;;;4935039;29;20066;-87
2022/04/12 01:09:27;;;;;;;19.40;10.83;;;6.60;99.90;;;;;;4935108;29;20043;-86
2022/04/12 01:11:53;;;;;;;18.60;11.47;;;6.60;99.90;;;;;;4934505;29;20039;-86
2022/04/12 01:14:19;;;;;;;17.10;10.47;;;6.60;99.90;;;;;;4935141;29;20123;-87
2022/04/12 01:16:45;;;;;;;19.43;10.33;;;6.50;99.90;;;;;;4917593;29;20044;-87
2022/04/12 01:19:10;;;;;;;19.23;10.50;;;6.40;99.90;;;;;;4934725;29;20139;-86
2022/04/12 01:21:45;;;;;;;19.57;10.63;;;6.40;99.90;;;;;;4935148;29;20051;-86
2022/04/12 01:24:12;;;;;;;19.23;10.47;;;6.40;99.90;;;;;;4934680;29;20048;-87
2022/04/12 01:26:40;;;;;;;19.17;10.83;;;6.30;99.90;;;;;;4934999;29;20443;-87
2022/04/12 01:29:05;;;;;;;17.77;10.30;;;6.30;99.90;;;;;;4935324;29;20055;-87
2022/04/12 01:31:31;;;;;;;17.07;9.63;;;6.20;99.90;;;;;;4917441;29;20123;-87
2022/04/12 01:33:57;;;;;;;19.20;9.97;;;6.20;99.90;;;;;;4919066;29;20039;-87
2022/04/12 01:36:22;;;;;;;17.67;10.03;;;6.20;99.90;;;;;;4935329;29;20043;-87
2022/04/12 01:38:48;;;;;;;17.10;10.10;;;6.20;99.90;;;;;;4918017;29;20036;-86
2022/04/12 01:41:13;;;;;;;18.73;9.73;;;6.20;99.90;;;;;;4938731;29;20468;-87
2022/04/12 01:43:39;;;;;;;18.27;10.13;;;6.10;99.90;;;;;;4938161;29;20130;-86
2022/04/12 01:46:04;;;;;;;17.40;10.30;;;6.10;99.90;;;;;;4937638;29;20399;-86
2022/04/12 01:48:30;;;;;;;19.17;9.90;;;6.10;99.90;;;;;;4938844;29;20036;-87
2022/04/12 01:50:56;;;;;;;19.27;10.20;;;6.10;99.90;;;;;;4938025;29;20535;-87
2022/04/12 01:53:21;;;;;;;19.37;10.07;;;6.10;99.90;;;;;;4937924;29;20044;-88
2022/04/12 01:55:47;;;;;;;18.17;10.07;;;6.10;99.90;;;;;;4937884;29;20072;-86
2022/04/12 01:58:12;;;;;;;17.10;9.57;;;6.00;99.90;;;;;;4938219;29;20423;-87
2022/04/12 02:00:38;;;;;;;17.30;9.60;;;6.00;99.90;;;;;;4920315;29;20444;-87
2022/04/12 02:03:04;;;;;;;17.73;10.10;;;6.00;99.90;;;;;;4938062;29;20575;-87
2022/04/12 02:05:30;;;;;;;18.73;10.50;;;6.10;99.90;;;;;;4920301;29;20087;-87
2022/04/12 02:07:55;;;;;;;16.20;9.70;;;5.90;99.90;;;;;;4937330;29;20094;-87
2022/04/12 02:10:22;;;;;;;18.37;9.87;;;5.90;99.90;;;;;;4920835;29;20084;-87
2022/04/12 02:12:49;;;;;;;18.17;9.83;;;5.80;99.90;;;;;;4920799;29;20048;-86
2022/04/12 02:15:15;;;;;;;18.93;10.33;;;5.80;99.90;;;;;;4920158;29;20040;-87
2022/04/12 02:17:41;;;;;;;16.23;9.53;;;5.70;99.90;;;;;;4920881;29;20102;-87
2022/04/12 02:20:07;;;;;;;17.57;10.20;;;5.70;99.90;;;;;;4919965;29;20131;-86
2022/04/12 02:22:32;;;;;;;18.63;9.70;;;5.60;99.90;;;;;;4938092;29;20146;-87
2022/04/12 02:24:58;;;;;;;17.50;9.93;;;5.60;99.90;;;;;;4937311;29;20535;-87
2022/04/12 02:27:24;;;;;;;17.47;10.20;;;5.50;99.90;;;;;;4920136;29;20158;-87
2022/04/12 02:29:49;;;;;;;18.00;9.67;;;5.50;99.90;;;;;;4920907;29;20114;-87
2022/04/12 02:32:15;;;;;;;17.40;9.40;;;5.40;99.90;;;;;;4920952;29;20164;-87
2022/04/12 02:34:40;;;;;;;17.27;9.67;;;5.40;99.90;;;;;;4936884;29;20388;-87
2022/04/12 02:37:06;;;;;;;17.17;9.83;;;5.50;99.90;;;;;;4921210;29;20099;-87
2022/04/12 02:39:32;;;;;;;17.73;10.20;;;5.50;99.90;;;;;;4920585;29;20051;-87
2022/04/12 02:41:57;;;;;;;18.87;9.67;;;5.50;99.90;;;;;;4937010;29;20103;-87
2022/04/12 02:44:23;;;;;;;20.23;10.87;;;5.40;99.90;;;;;;4920839;29;20062;-87
2022/04/12 02:46:48;;;;;;;17.87;9.67;;;5.40;99.90;;;;;;4920135;29;20135;-87
2022/04/12 02:49:14;;;;;;;18.43;9.97;;;5.40;99.90;;;;;;4919816;29;20072;-87
2022/04/12 02:51:39;;;;;;;18.70;9.93;;;5.40;99.90;;;;;;4918824;29;20047;-88
2022/04/12 02:54:05;;;;;;;18.27;10.50;;;5.40;99.90;;;;;;4937564;29;20047;-88
2022/04/12 02:56:30;;;;;;;16.73;9.23;;;5.40;99.90;;;;;;4936664;29;20102;-87
2022/04/12 02:58:56;;;;;;;18.53;9.87;;;5.30;99.90;;;;;;4920260;29;20360;-87
2022/04/12 03:01:22;;;;;;;17.23;9.43;;;5.30;99.90;;;;;;4937628;29;20390;-87
2022/04/12 03:03:47;;;;;;;17.37;9.80;;;5.30;99.90;;;;;;4936384;29;20476;-87
2022/04/12 03:06:13;;;;;;;18.40;9.97;;;5.30;99.90;;;;;;4919979;29;20046;-87
2022/04/12 03:08:38;;;;;;;19.00;10.10;;;5.20;99.90;;;;;;4919922;29;20623;-87
2022/04/12 03:11:04;;;;;;;16.60;9.80;;;5.20;99.90;;;;;;4936659;29;20039;-87
2022/04/12 03:13:30;;;;;;;16.90;9.20;;;5.20;99.90;;;;;;4937059;29;20050;-87
2022/04/12 03:15:55;;;;;;;20.27;10.10;;;5.20;99.90;;;;;;4919777;29;20218;-87
2022/04/12 03:18:21;;;;;;;19.10;10.37;;;5.10;99.90;;;;;;4919114;29;20130;-87
2022/04/12 03:20:48;;;;;;;17.30;9.97;;;5.10;99.90;;;;;;4936729;29;20072;-87
2022/04/12 03:23:14;;;;;;;19.60;10.03;;;5.10;99.90;;;;;;4937289;29;20118;-87
2022/04/12 03:25:40;;;;;;;20.00;11.50;;;5.10;99.90;;;;;;4918920;29;20135;-87
2022/04/12 03:28:06;;;;;;;19.63;10.33;;;5.00;99.90;;;;;;4919993;29;20074;-87
2022/04/12 03:30:31;;;;;;;17.17;9.57;;;4.90;99.90;;;;;;4936181;29;20043;-87
2022/04/12 03:32:57;;;;;;;17.37;9.87;;;4.90;99.90;;;;;;4936769;29;20043;-87
2022/04/12 03:35:22;;;;;;;17.53;9.47;;;4.80;99.90;;;;;;4936498;29;20043;-87
2022/04/12 03:37:48;;;;;;;17.80;10.13;;;4.80;99.90;;;;;;4935803;29;20133;-87
2022/04/12 03:40:14;;;;;;;17.43;9.40;;;4.80;99.90;;;;;;4937119;29;20079;-87
2022/04/12 03:42:40;;;;;;;17.03;9.60;;;4.80;99.90;;;;;;4919357;29;20086;-87
2022/04/12 03:45:06;;;;;;;18.30;9.90;;;4.80;99.90;;;;;;4935991;29;20051;-87
2022/04/12 03:47:32;;;;;;;18.90;9.13;;;4.80;99.90;;;;;;4919735;29;20412;-87
2022/04/12 03:49:57;;;;;;;17.93;9.70;;;4.90;99.90;;;;;;4936424;29;20043;-87
2022/04/12 03:52:23;;;;;;;18.37;9.80;;;4.90;99.90;;;;;;4918575;29;20448;-87
2022/04/12 03:54:48;;;;;;;16.53;9.70;;;4.90;99.90;;;;;;4919136;29;20043;-87
2022/04/12 03:57:14;;;;;;;22.50;10.37;;;4.90;99.90;;;;;;4936581;29;20114;-87
2022/04/12 03:59:40;;;;;;;19.03;9.73;;;5.00;99.90;;;;;;4918447;29;20493;-87
2022/04/12 04:02:05;;;;;;;16.73;9.13;;;5.00;99.90;;;;;;4935931;29;20043;-87
2022/04/12 04:04:31;;;;;;;19.20;9.97;;;5.00;99.90;;;;;;4935882;29;20043;-87
2022/04/12 04:06:56;;;;;;;19.17;9.57;;;5.00;99.90;;;;;;4917337;29;20130;-87
2022/04/12 04:09:23;;;;;;;18.23;9.43;;;5.00;99.90;;;;;;4918941;29;20126;-87
2022/04/12 04:11:49;;;;;;;18.20;9.97;;;5.00;99.90;;;;;;4918654;29;20047;-87
2022/04/12 04:14:15;;;;;;;17.07;9.17;;;5.10;99.90;;;;;;4935718;29;20043;-87
2022/04/12 04:16:41;;;;;;;17.13;9.57;;;5.00;99.90;;;;;;4918843;29;20044;-87
2022/04/12 04:19:09;;;;;;;17.97;10.50;;;5.10;99.90;;;;;;4918905;29;20056;-87
2022/04/12 04:21:38;;;;;;;17.60;9.73;;;5.10;99.90;;;;;;4918265;29;20051;-87
2022/04/12 04:24:04;;;;;;;17.47;9.70;;;5.10;99.90;;;;;;4918616;29;20047;-87
2022/04/12 04:26:30;;;;;;;18.73;9.83;;;5.00;99.90;;;;;;4936075;29;20055;-87
2022/04/12 04:28:56;;;;;;;16.37;9.33;;;5.10;99.90;;;;;;4936027;29;20043;-87
2022/04/12 04:31:22;;;;;;;16.43;9.47;;;5.00;99.90;;;;;;4920611;29;20047;-88
2022/04/12 04:33:48;;;;;;;16.60;9.27;;;5.00;99.90;;;;;;4918560;29;20058;-88
2022/04/12 04:36:13;;;;;;;16.70;9.47;;;5.00;99.90;;;;;;4918533;29;20083;-87
2022/04/12 04:38:39;;;;;;;16.20;9.60;;;5.00;99.90;;;;;;4918834;29;20064;-87
2022/04/12 04:41:04;;;;;;;18.57;10.17;;;4.90;99.90;;;;;;4917825;29;20899;-87
2022/04/12 04:43:30;;;;;;;17.23;9.80;;;5.00;99.90;;;;;;4936503;29;20107;-87
2022/04/12 04:45:55;;;;;;;20.77;10.10;;;5.00;99.90;;;;;;4918430;29;20055;-86
2022/04/12 04:48:22;;;;;;;18.17;9.93;;;5.00;99.90;;;;;;4918145;29;20090;-87
2022/04/12 04:50:48;;;;;;;18.37;9.93;;;4.90;99.90;;;;;;4935194;29;20090;-86
2022/04/12 04:53:14;;;;;;;18.87;10.07;;;4.90;99.90;;;;;;4918136;29;20054;-86
2022/04/12 04:55:42;;;;;;;19.07;9.77;;;4.90;99.90;;;;;;4934727;29;20043;-86
2022/04/12 04:58:08;;;;;;;17.97;9.23;;;4.90;99.90;;;;;;4918460;29;20048;-87
2022/04/12 05:00:34;;;;;;;17.83;9.60;;;4.90;99.90;;;;;;4935907;29;20044;-86
2022/04/12 05:03:01;;;;;;;17.27;9.40;;;4.80;99.90;;;;;;4934599;29;20040;-87
2022/04/12 05:05:27;;;;;;;17.17;8.93;;;4.80;99.90;;;;;;4918267;29;20102;-86
2022/04/12 05:07:55;;;;;;;16.50;9.23;;;4.80;99.90;;;;;;4935658;29;20094;-86
2022/04/12 05:10:23;;;;;;;17.77;9.50;;;4.80;99.90;;;;;;4917915;29;20085;-86
2022/04/12 05:12:50;;;;;;;17.33;9.57;;;4.80;99.90;;;;;;4918446;29;20059;-86
2022/04/12 05:15:15;;;;;;;20.03;9.53;;;4.80;99.90;;;;;;4921282;29;20044;-87
2022/04/12 05:17:46;;;;;;;18.37;10.13;;;4.70;99.90;;;;;;4938398;29;20058;-87
2022/04/12 05:20:12;;;;;;;19.47;10.17;;;4.70;99.90;;;;;;4922122;29;20507;-86
2022/04/12 05:22:38;;;;;;;18.30;9.43;;;4.70;99.90;;;;;;4921938;29;20048;-87
2022/04/12 05:25:04;;;;;;;17.13;9.60;;;4.70;99.90;;;;;;4938613;29;20424;-87
2022/04/12 05:27:34;;;;;;;17.13;9.47;;;4.70;99.90;;;;;;4922054;29;20139;-87
2022/04/12 05:30:01;;;;;;;16.80;9.83;;;4.70;99.90;;;;;;4921237;29;20059;-87
2022/04/12 05:32:26;;;;;;;19.30;9.93;;;4.70;99.90;;;;;;4921865;29;20070;-88
2022/04/12 05:34:54;;;;;;;17.17;9.37;;;4.70;99.90;;;;;;4922674;29;20055;-94
2022/04/12 05:37:20;;;;;;;16.80;9.77;;;4.80;99.90;;;;;;4906896;29;20063;-92
2022/04/12 05:39:46;;;;;;;18.70;9.60;;;4.80;99.90;;;;;;4940430;29;20052;-95
2022/04/12 05:42:41;;;;;;;17.50;9.50;;;5.10;99.90;;;;;;4941425;29;20047;-96
2022/04/12 05:47:52;;;;;;;17.52;9.40;;;5.10;99.90;;;;;;4924906;23;20056;-95
2022/04/12 05:50:22;;;;;;;17.77;9.33;;;5.10;99.90;;;;;;4904885;29;20048;-95
2022/04/12 05:52:48;;;;;;;17.40;10.03;;;5.30;99.90;;;;;;4921351;29;20047;-93
2022/04/12 05:55:15;;;;;;;30.73;11.80;;;5.20;99.90;;;;;;4906426;29;20048;-92
2022/04/12 05:58:03;;;;;;;17.90;9.60;;;5.80;99.90;;;;;;4905759;29;20052;-92
2022/04/12 06:00:35;;;;;;;16.33;9.33;;;5.60;99.90;;;;;;4920071;29;20052;-94
2022/04/12 06:03:09;;;;;;;17.50;9.87;;;5.90;99.90;;;;;;4903260;29;20044;-94
2022/04/12 06:05:35;;;;;;;18.57;9.17;;;5.40;99.90;;;;;;4903482;29;20500;-94
2022/04/12 06:08:03;;;;;;;16.33;9.77;;;6.20;99.90;;;;;;4906461;29;20044;-93
2022/04/12 06:10:28;;;;;;;19.63;9.47;;;7.70;99.90;;;;;;4903568;29;20055;-94
2022/04/12 06:12:54;;;;;;;16.03;9.00;;;6.60;99.90;;;;;;4903934;29;20052;-96
2022/04/12 06:15:20;;;;;;;15.40;8.80;;;6.80;99.90;;;;;;4907078;29;20040;-96
2022/04/12 06:17:46;;;;;;;19.13;9.50;;;7.60;99.90;;;;;;4920179;29;20052;-94
2022/04/12 06:20:14;;;;;;;15.63;8.80;;;6.80;99.90;;;;;;4902083;29;20048;-93
2022/04/12 06:22:53;;;;;;;19.30;9.47;;;7.80;99.90;;;;;;4897616;29;20098;-92
2022/04/12 06:25:20;;;;;;;17.97;8.60;;;6.90;99.90;;;;;;4898776;29;20459;-93
2022/04/12 06:27:50;;;;;;;17.17;9.37;;;7.10;99.90;;;;;;4902317;29;20095;-93
2022/04/12 06:30:19;;;;;;;16.50;8.53;;;8.10;99.90;;;;;;4919543;29;20080;-92
2022/04/12 06:32:45;;;;;;;16.07;8.53;;;7.20;99.90;;;;;;4902919;29;20071;-94
2022/04/12 06:35:12;;;;;;;15.87;8.67;;;7.30;99.90;;;;;;4902005;29;20051;-93
2022/04/12 06:37:39;;;;;;;15.93;8.43;;;7.40;99.90;;;;;;4904935;29;20044;-92
2022/04/12 06:40:07;;;;;;;15.67;9.03;;;9.00;99.90;;;;;;4903535;29;20048;-93
2022/04/12 06:42:33;;;;;;;16.47;8.93;;;7.60;99.90;;;;;;4902394;29;20088;-92
2022/04/12 06:44:58;;;;;;;16.70;8.93;;;7.70;99.90;;;;;;4902754;29;20088;-94
2022/04/12 06:47:24;;;;;;;16.53;8.53;;;8.50;99.90;;;;;;4908999;29;20103;-94
2022/04/12 06:49:51;;;;;;;16.93;8.80;;;7.90;99.90;;;;;;4908169;29;20052;-96
2022/04/12 06:52:33;;;;;;;14.77;8.40;;;8.00;99.90;;;;;;4892223;29;20060;-96
2022/04/12 06:54:59;;;;;;;16.08;8.75;;;8.00;99.90;;;;;;4926209;29;20055;-94
2022/04/12 06:57:25;;;;;;;16.23;8.47;;;8.70;99.90;;;;;;4921194;29;20060;-94
2022/04/12 06:59:54;;;;;;;17.10;8.75;;;8.80;99.90;;;;;;4902170;29;20040;-92
2022/04/12 07:02:19;;;;;;;15.67;8.57;;;8.40;99.90;;;;;;4919053;29;20096;-93
2022/04/12 07:04:51;;;;;;;16.08;8.82;;;9.30;99.90;;;;;;4918579;29;20060;-93
2022/04/12 07:07:25;;;;;;;16.10;8.50;;;9.50;99.90;;;;;;4904822;29;20044;-93
2022/04/12 07:09:51;;;;;;;17.65;9.00;;;9.60;99.90;;;;;;4904046;29;20091;-94
2022/04/12 07:12:16;;;;;;;18.45;8.57;;;8.80;99.90;;;;;;4918295;29;20048;-93
2022/04/12 07:14:45;;;;;;;15.00;8.73;;;8.50;99.90;;;;;;4917558;29;20051;-93
2022/04/12 07:17:10;;;;;;;16.80;8.30;;;8.50;99.90;;;;;;4920175;29;20032;-92
2022/04/12 07:19:39;;;;;;;16.90;8.80;;;8.70;99.90;;;;;;4902261;29;20139;-93
2022/04/12 07:22:05;;;;;;;16.48;8.85;;;9.60;99.90;;;;;;4898760;29;20055;-93
2022/04/12 07:24:31;;;;;;;14.75;8.07;;;9.60;99.90;;;;;;4892232;29;20044;-92
2022/04/12 07:27:03;;;;;;;15.55;8.35;;;9.80;99.90;;;;;;4913765;29;20044;-92
2022/04/12 07:29:46;;;;;;;16.02;8.48;;;8.90;99.90;;;;;;4885325;29;20041;-92
2022/04/12 07:32:12;;;;;;;14.77;8.25;;;9.00;99.90;;;;;;4899475;29;20481;-93
2022/04/12 07:34:50;;;;;;;15.82;8.05;;;10.10;99.90;;;;;;4882743;29;20044;-93
2022/04/12 07:37:27;;;;;;;16.70;8.63;;;9.70;99.90;;;;;;4886174;29;20110;-94
2022/04/12 07:40:08;;;;;;;15.20;8.15;;;9.10;99.90;;;;;;4901764;29;20052;-92
2022/04/12 07:42:40;;;;;;;15.32;8.85;;;8.70;99.90;;;;;;4901875;29;20048;-93
2022/04/12 07:45:16;;;;;;;15.30;8.05;;;9.60;99.90;;;;;;4917414;29;20044;-94
2022/04/12 07:48:07;;;;;;;16.02;8.55;;;9.30;99.90;;;;;;4915180;29;20115;-93
2022/04/12 07:50:34;;;;;;;14.52;8.43;;;10.20;99.90;;;;;;4929930;29;20028;-94
2022/04/12 07:53:09;;;;;;;15.00;8.63;;;9.50;99.90;;;;;;4901733;29;20445;-93
2022/04/12 07:55:53;;;;;;;13.82;7.30;;;9.40;99.90;;;;;;4901647;29;20497;-91
2022/04/12 07:58:34;;;;;;;15.18;7.63;;;9.50;99.90;;;;;;4899998;29;20050;-91
2022/04/12 08:01:08;;;;;;;13.48;7.55;;;9.90;99.90;;;;;;4917588;29;20103;-92
2022/04/12 08:03:40;;;;;;;14.20;7.97;;;9.80;99.90;;;;;;4917733;29;20047;-91
2022/04/12 08:06:06;;;;;;;16.90;7.70;;;10.50;99.90;;;;;;4917309;29;20090;-92
2022/04/12 08:08:35;;;;;;;16.38;8.40;;;10.20;99.90;;;;;;4901430;29;20079;-89
2022/04/12 08:11:04;;;;;;;14.35;7.57;;;10.20;99.90;;;;;;4917331;29;20052;-90
2022/04/12 08:13:30;;;;;;;15.07;7.43;;;11.20;99.90;;;;;;4916677;29;20539;-91
2022/04/12 08:15:56;;;;;;;14.45;7.60;;;10.80;99.90;;;;;;4900461;29;20094;-91
2022/04/12 08:18:22;;;;;;;13.43;7.55;;;10.60;99.90;;;;;;4917852;29;20072;-90
2022/04/12 08:20:49;;;;;;;15.25;8.10;;;10.80;99.90;;;;;;4912879;29;20047;-89
2022/04/12 08:23:16;;;;;;;14.60;7.25;;;10.90;99.90;;;;;;4916572;29;20040;-90
2022/04/12 08:25:42;;;;;;;15.75;7.70;;;12.00;99.90;;;;;;4899055;29;20047;-89
2022/04/12 08:28:08;;;;;;;14.25;8.68;;;11.90;99.90;;;;;;4898976;29;20107;-90
2022/04/12 08:30:43;;;;;;;14.75;7.57;;;11.60;99.90;;;;;;4899322;29;20044;-89
2022/04/12 08:33:25;;;;;;;16.05;8.00;;;11.90;99.90;;;;;;4917076;29;20048;-92
2022/04/12 08:35:52;;;;;;;15.88;8.48;;;12.50;99.90;;;;;;4914281;29;20052;-89
2022/04/12 08:38:17;;;;;;;19.73;8.15;;;12.70;99.90;;;;;;4900251;29;20669;-86
2022/04/12 08:40:44;;;;;;;13.90;8.25;;;11.70;99.90;;;;;;4915515;29;20116;-87
2022/04/12 08:43:14;;;;;;;15.10;8.15;;;11.70;99.90;;;;;;4916437;29;20091;-87
2022/04/12 08:45:42;;;;;;;15.18;8.13;;;11.80;99.90;;;;;;4916288;29;20051;-86
2022/04/12 08:48:08;;;;;;;18.45;8.50;;;12.10;99.90;;;;;;4915988;29;20056;-87
2022/04/12 08:50:39;;;;;;;14.82;7.75;;;12.30;99.90;;;;;;4916366;29;20068;-87
2022/04/12 08:53:06;;;;;;;15.52;7.88;;;12.10;99.90;;;;;;4900048;29;20055;-85
2022/04/12 08:55:33;;;;;;;15.38;7.68;;;12.50;99.90;;;;;;4917693;29;20087;-85
2022/04/12 08:57:58;;;;;;;14.38;7.95;;;12.70;99.90;;;;;;4916259;29;20525;-84
2022/04/12 09:00:27;;;;;;;15.15;8.05;;;13.20;99.90;;;;;;4916214;29;20389;-87
2022/04/12 09:02:59;;;;;;;13.65;7.70;;;13.20;99.90;;;;;;4898686;29;20102;-88
2022/04/12 09:05:25;;;;;;;15.55;7.97;;;12.90;99.90;;;;;;4900055;29;20063;-88
2022/04/12 09:07:51;;;;;;;14.63;8.45;;;13.00;99.90;;;;;;4915349;29;20056;-87
2022/04/12 09:10:22;;;;;;;14.32;7.85;;;13.30;99.90;;;;;;4915205;29;20357;-86
2022/04/12 09:12:48;;;;;;;13.82;7.55;;;13.60;99.90;;;;;;4915523;29;20127;-87
2022/04/12 09:15:15;;;;;;;16.45;7.35;;;13.60;99.90;;;;;;4915191;29;20161;-86
2022/04/12 09:17:44;;;;;;;15.00;7.72;;;13.60;99.90;;;;;;4915532;29;20040;-86
2022/04/12 09:20:13;;;;;;;17.15;7.63;;;13.80;99.90;;;;;;4898756;29;20156;-86
2022/04/12 09:22:39;;;;;;;14.18;7.20;;;13.90;99.90;;;;;;4897720;29;20091;-85
2022/04/12 09:25:07;;;;;;;14.13;7.55;;;14.10;99.90;;;;;;4896002;29;20044;-86
2022/04/12 09:27:34;;;;;;;13.45;7.18;;;14.30;99.90;;;;;;4899016;29;20052;-86
2022/04/12 09:30:05;;;;;;;12.73;7.05;;;14.50;99.90;;;;;;4914186;29;20396;-87
2022/04/12 09:32:36;;;;;;;14.45;7.07;;;14.60;99.90;;;;;;4899042;29;20055;-86
2022/04/12 09:35:03;;;;;;;14.30;7.70;;;14.60;99.90;;;;;;4915924;29;20048;-86
2022/04/12 09:37:33;;;;;;;14.32;7.22;;;14.70;99.90;;;;;;4898309;29;20104;-89
2022/04/12 09:40:02;;;;;;;14.32;7.65;;;14.80;99.90;;;;;;4898835;29;20393;-88
2022/04/12 09:42:36;;;;;;;15.02;7.80;;;14.90;99.90;;;;;;4916181;29;20110;-86
2022/04/12 09:48:04;;;;;;;14.27;7.60;;;15.00;99.90;;;;;;4890779;29;20058;-86
2022/04/12 09:50:32;;;;;;;13.27;7.55;;;14.90;99.90;;;;;;4897425;29;20048;-85
2022/04/12 09:53:04;;;;;;;14.85;7.45;;;14.70;99.90;;;;;;4896987;29;20048;-87
2022/04/12 09:55:43;;;;;;;13.93;7.45;;;15.30;99.90;;;;;;4914637;29;20048;-87
2022/04/12 09:58:14;;;;;;;13.63;7.80;;;16.00;99.90;;;;;;4900600;29;20122;-87
2022/04/12 10:00:41;;;;;;;12.13;7.25;;;15.50;99.90;;;;;;4916580;29;20446;-88
2022/04/12 10:03:14;;;;;;;15.65;7.63;;;15.60;99.90;;;;;;4901660;29;20532;-88
2022/04/12 10:05:41;;;;;;;12.20;7.20;;;15.70;99.90;;;;;;4916095;29;20052;-87
2022/04/12 10:08:17;;;;;;;12.98;7.90;;;16.30;99.90;;;;;;4902252;29;20066;-90
2022/04/12 10:10:44;;;;;;;14.43;7.93;;;15.80;99.90;;;;;;4918963;29;20056;-88
2022/04/12 10:13:13;;;;;;;16.10;8.70;;;15.90;99.90;;;;;;4901659;29;20131;-88
2022/04/12 10:15:40;;;;;;;14.05;7.95;;;16.20;99.90;;;;;;4917543;29;20098;-90
2022/04/12 10:18:06;;;;;;;13.55;7.95;;;16.40;99.90;;;;;;4915492;29;20044;-89
2022/04/12 10:20:31;;;;;;;14.80;7.80;;;16.50;99.90;;;;;;4918313;29;20132;-88
2022/04/12 10:22:59;;;;;;;14.77;7.82;;;16.60;99.90;;;;;;4917549;29;20126;-87
2022/04/12 10:25:26;;;;;;;14.88;8.00;;;16.60;99.90;;;;;;4901377;29;20040;-89
2022/04/12 10:27:57;;;;;;;12.38;7.97;;;16.70;99.90;;;;;;4902186;29;20063;-88
2022/04/12 10:30:28;;;;;;;18.27;8.25;;;16.80;99.90;;;;;;4902395;29;20062;-87
2022/04/12 10:33:24;;;;;;;16.95;7.93;;;16.80;99.90;;;;;;4917910;29;20374;-91
2022/04/12 10:35:54;;;;;;;13.30;8.15;;;16.90;99.90;;;;;;4892332;29;20091;-91
2022/04/12 10:38:40;;;;;;;13.40;7.90;;;17.20;99.90;;;;;;4919994;29;20071;-96
2022/04/12 10:41:38;;;;;;;13.00;7.97;;;17.40;99.90;;;;;;4923231;29;20480;-96
2022/04/12 10:44:17;;;;;;;14.45;8.27;;;17.40;99.90;;;;;;4902320;29;20051;-91
2022/04/12 10:46:49;;;;;;;13.65;7.55;;;17.70;99.90;;;;;;4902118;29;20168;-88
2022/04/12 10:49:37;;;;;;;13.88;8.10;;;18.40;99.90;;;;;;4917939;29;20039;-89
2022/04/12 10:52:25;;;;;;;13.40;7.80;;;18.00;99.90;;;;;;4916657;29;20036;-89
2022/04/12 10:54:57;;;;;;;13.98;7.97;;;17.70;99.90;;;;;;4900621;29;20139;-89
2022/04/12 10:57:32;;;;;;;12.85;7.55;;;18.00;99.90;;;;;;4901485;29;20048;-92
2022/04/12 11:00:17;;;;;;;14.60;8.50;;;18.60;99.90;;;;;;4891197;29;20094;-90
2022/04/12 11:02:57;;;;;;;13.63;8.52;;;18.10;99.90;;;;;;4883523;29;20044;-88
2022/04/12 12:13:06;;;;;;;16.08;9.38;;;20.20;97.60;;;;;;5539712;23;20062;-92
2022/04/12 12:15:40;;;;;;;15.55;9.38;;;20.40;96.50;;;;;;4833197;29;20054;-92
2022/04/12 12:22:14;;;;;;;15.25;8.63;;;20.60;95.70;;;;;;4788971;29;19925;-92
2022/04/12 12:25:23;;;;;;;13.35;8.75;;;20.80;97.10;;;;;;4803081;29;20162;-90
2022/04/12 12:27:53;;;;;;;17.58;8.18;;;21.20;95.70;;;;;;4791164;29;20070;-90
2022/04/12 12:31:22;;;;;;;15.60;7.75;;;21.20;95.60;;;;;;4778821;29;20087;-88
2022/04/12 12:33:50;;;;;;;13.95;8.20;;;21.10;93.40;;;;;;4757388;30;20091;-89
2022/04/12 12:36:49;;;;;;;12.85;7.57;;;21.50;93.00;;;;;;4775574;30;20047;-90
2022/04/12 13:02:14;;;;;;;14.60;7.82;;;22.30;90.00;;;;;;4807064;29;20434;-86
2022/04/12 13:05:49;;;;;;;13.20;7.40;;;21.60;90.70;;;;;;4866399;23;20529;-87
2022/04/12 13:08:42;;;;;;;13.70;7.55;;;22.30;88.80;;;;;;5018883;23;20058;-88
2022/04/12 13:11:11;;;;;;;13.93;7.22;;;22.30;89.90;;;;;;4872523;23;20049;-87
2022/04/12 13:19:33;;;;;;;13.10;7.97;;;22.00;87.00;;;;;;4840427;29;20061;-87
2022/04/12 13:22:12;;;;;;;13.35;6.95;;;22.60;88.90;;;;;;4840902;29;20085;-87
2022/04/12 13:24:41;;;;;;;13.52;6.93;;;20.30;87.30;;;;;;4842244;29;20046;-87
2022/04/12 13:27:07;;;;;;;12.85;7.10;;;21.60;90.40;;;;;;4841030;29;20149;-86
2022/04/12 13:29:32;;;;;;;12.00;6.85;;;21.90;90.20;;;;;;4840423;29;20493;-87
2022/04/12 13:32:13;;;;;;;14.30;7.15;;;22.40;90.20;;;;;;4840641;29;20432;-87
2022/04/12 13:34:40;;;;;;;12.40;6.80;;;22.10;89.70;;;;;;4841026;29;20479;-87
2022/04/12 13:37:09;;;;;;;12.75;7.07;;;22.60;90.20;;;;;;4843464;29;20050;-87
2022/04/12 13:39:44;;;;;;;12.88;6.97;;;22.40;89.90;;;;;;4844003;29;20060;-87
2022/04/12 13:42:13;;;;;;;15.55;7.78;;;21.90;89.40;;;;;;4844145;29;20495;-87
2022/04/12 13:44:38;;;;;;;13.57;7.32;;;22.60;90.00;;;;;;4843524;29;20058;-87
2022/04/12 13:47:06;;;;;;;12.77;7.20;;;22.10;90.30;;;;;;4843692;29;20076;-87
2022/04/12 13:49:33;;;;;;;11.90;6.57;;;21.30;89.80;;;;;;4844154;29;20510;-86
2022/04/12 13:52:10;;;;;;;14.88;6.82;;;20.80;89.60;;;;;;4843945;29;20417;-88
2022/04/12 14:04:46;;;;;;;12.93;6.00;;;21.30;90.30;;;;;;5459760;23;20045;-88
2022/04/12 14:07:12;;;;;;;12.65;6.05;;;22.30;90.30;;;;;;4851760;29;20380;-89
2022/04/12 14:09:44;;;;;;;11.88;5.50;;;22.10;90.10;;;;;;4850869;29;20113;-87
2022/04/12 14:12:10;;;;;;;12.27;5.72;;;21.60;90.00;;;;;;4851800;29;20049;-87
2022/04/12 14:14:55;;;;;;;11.65;5.22;;;21.20;90.10;;;;;;4855025;29;20418;-88
2022/04/12 14:17:29;;;;;;;11.82;6.07;;;21.30;90.40;;;;;;4850215;29;20048;-87
2022/04/12 14:20:04;;;;;;;12.90;6.35;;;21.60;90.60;;;;;;4842069;23;20062;-89
2022/04/12 14:22:30;;;;;;;13.73;7.45;;;22.10;89.80;;;;;;4823676;29;20074;-87
2022/04/12 14:28:26;;;;;;;13.52;7.88;;;22.50;88.20;;;;;;4825202;29;20051;-88
2022/04/12 14:30:57;;;;;;;13.73;8.13;;;22.40;88.60;;;;;;4824652;29;20503;-88
2022/04/12 14:33:29;;;;;;;15.13;8.20;;;22.60;87.50;;;;;;4821595;29;20042;-88
2022/04/12 14:35:58;;;;;;;13.93;8.40;;;22.90;88.00;;;;;;4825131;29;20090;-88
2022/04/12 14:38:30;;;;;;;14.95;8.93;;;23.10;88.70;;;;;;4823383;29;20125;-88
2022/04/12 14:44:22;;;;;;;14.35;8.45;;;22.90;86.70;;;;;;4801736;29;20050;-87
2022/04/12 14:46:59;;;;;;;13.68;8.13;;;22.80;87.00;;;;;;4714944;30;20073;-87
2022/04/12 14:57:26;;;;;;;13.88;7.82;;;22.90;85.90;;;;;;4690675;30;20061;-89
2022/04/12 15:03:11;;;;;;;;;;;;;;;;;;;;;
2022/04/12 15:09:23;;;;;;;14.40;8.55;;;22.80;85.00;;;;;;4838258;23;20046;-88
2022/04/12 15:11:49;;;;;;;13.30;7.97;;;23.10;85.50;;;;;;4824824;29;20046;-86
2022/04/12 15:14:24;;;;;;;14.25;8.43;;;22.70;86.20;;;;;;4823667;29;20046;-87